createdAt,value
2023-01-08T00:01:07.935Z,266.48
2023-01-08T00:03:38.247Z,242.70
2023-01-08T00:06:08.828Z,247.05
2023-01-08T00:08:37.557Z,357.77
2023-01-08T00:11:07.694Z,338.30
2023-01-08T00:13:36.460Z,254.90
2023-01-08T00:16:07.712Z,369.90
2023-01-08T00:18:36.617Z,365.33
2023-01-08T00:21:05.646Z,345.50
2023-01-08T00:23:34.637Z,296.63
2023-01-08T00:26:03.410Z,301.33
2023-01-08T00:28:32.452Z,296.63
2023-01-08T00:31:03.442Z,291.33
2023-01-08T00:33:33.969Z,292.92
2023-01-08T00:36:02.639Z,212.30
2023-01-08T00:38:31.252Z,273.52
2023-01-08T00:40:59.664Z,300.00
2023-01-08T00:43:28.328Z,249.13
2023-01-08T00:45:56.958Z,307.60
2023-01-08T00:48:25.883Z,343.05
2023-01-08T00:50:56.587Z,276.25
2023-01-08T00:53:25.470Z,346.63
2023-01-08T00:56:01.547Z,323.48
2023-01-08T00:58:30.196Z,275.00
2023-01-08T01:00:58.933Z,287.65
2023-01-08T01:03:27.664Z,283.42
2023-01-08T01:06:03.957Z,201.57
2023-01-08T01:08:32.499Z,201.77
2023-01-08T01:11:01.183Z,200.45
2023-01-08T01:13:29.736Z,359.83
2023-01-08T01:16:01.557Z,228.07
2023-01-08T01:18:30.339Z,248.13
2023-01-08T01:20:58.840Z,170.77
2023-01-08T01:23:29.024Z,222.32
2023-01-08T01:25:57.673Z,189.95
2023-01-08T01:28:26.414Z,170.38
2023-01-08T01:30:58.287Z,213.63
2023-01-08T01:33:27.283Z,202.55
2023-01-08T01:36:03.336Z,352.35
2023-01-08T01:38:33.387Z,173.20
2023-01-08T01:41:02.075Z,204.05
2023-01-08T01:43:40.877Z,183.40
2023-01-08T01:46:19.088Z,182.13
2023-01-08T01:48:48.617Z,222.93
2023-01-08T01:51:17.187Z,242.15
2023-01-08T01:53:47.812Z,208.77
2023-01-08T01:56:16.370Z,204.00
2023-01-08T01:58:44.920Z,254.77
2023-01-08T02:01:13.673Z,312.58
2023-01-08T02:03:42.528Z,305.05
2023-01-08T02:06:17.790Z,302.67
2023-01-08T02:08:56.441Z,269.58
2023-01-08T02:11:30.892Z,196.60
2023-01-08T02:14:03.419Z,173.35
2023-01-08T02:16:38.101Z,117.93
2023-01-08T02:21:45.873Z,112.07
2023-01-08T02:24:25.154Z,160.20
2023-01-08T02:26:56.046Z,131.02
2023-01-08T02:29:28.448Z,97.78
2023-01-08T02:31:57.308Z,116.00
2023-01-08T02:34:26.029Z,121.88
2023-01-08T02:36:55.666Z,119.90
2023-01-08T02:39:39.255Z,153.27
2023-01-08T02:42:12.556Z,129.25
2023-01-08T02:44:52.291Z,101.68
2023-01-08T02:47:30.054Z,121.22
2023-01-08T02:50:09.271Z,111.70
2023-01-08T02:52:43.068Z,112.50
2023-01-08T02:55:12.805Z,131.82
2023-01-08T02:57:42.918Z,126.35
2023-01-08T03:00:13.294Z,117.35
2023-01-08T03:02:43.547Z,128.05
2023-01-08T03:05:16.952Z,110.05
2023-01-08T03:07:45.480Z,130.57
2023-01-08T03:10:14.383Z,135.27
2023-01-08T03:12:51.004Z,124.05
2023-01-08T03:15:26.084Z,115.35
2023-01-08T03:17:58.787Z,129.68
2023-01-08T03:20:27.599Z,95.57
2023-01-08T03:22:58.320Z,135.20
2023-01-08T03:25:28.627Z,118.60
2023-01-08T03:28:02.733Z,176.00
2023-01-08T03:30:32.455Z,141.82
2023-01-08T03:33:02.159Z,138.77
2023-01-08T03:35:31.700Z,135.27
2023-01-08T03:38:04.961Z,106.60
2023-01-08T03:40:36.768Z,106.85
2023-01-08T03:43:06.700Z,112.57
2023-01-08T03:45:35.269Z,150.93
2023-01-08T03:48:05.120Z,118.63
2023-01-08T03:50:34.336Z,104.35
2023-01-08T03:53:02.913Z,145.20
2023-01-08T03:55:31.340Z,127.15
2023-01-08T03:57:59.869Z,121.72
2023-01-08T04:00:30.139Z,108.70
2023-01-08T04:02:59.032Z,107.00
2023-01-08T04:05:27.527Z,114.40
2023-01-08T04:07:57.654Z,122.10
2023-01-08T04:10:26.569Z,112.65
2023-01-08T04:12:55.160Z,114.30
2023-01-08T04:15:23.591Z,115.35
2023-01-08T04:17:54.505Z,103.53
2023-01-08T04:20:22.984Z,103.65
2023-01-08T04:22:51.515Z,109.38
2023-01-08T04:25:20.388Z,123.45
2023-01-08T04:27:49.136Z,108.72
2023-01-08T04:30:17.863Z,109.15
2023-01-08T04:32:46.196Z,104.50
2023-01-08T04:35:16.327Z,120.30
2023-01-08T04:37:44.761Z,109.15
2023-01-08T04:40:13.767Z,97.63
2023-01-08T04:42:42.325Z,118.75
2023-01-08T04:45:11.576Z,122.03
2023-01-08T04:47:39.908Z,135.65
2023-01-08T04:50:09.022Z,127.03
2023-01-08T04:52:38.972Z,113.32
2023-01-08T04:55:08.311Z,114.93
2023-01-08T04:57:36.720Z,130.65
2023-01-08T05:00:06.651Z,134.10
2023-01-08T05:02:35.463Z,116.97
2023-01-08T05:05:04.591Z,111.03
2023-01-08T05:07:33.081Z,103.40
2023-01-08T05:10:03.078Z,128.95
2023-01-08T05:12:31.584Z,173.60
2023-01-08T05:15:00.338Z,152.38
2023-01-08T05:17:29.100Z,261.27
2023-01-08T05:19:57.628Z,167.20
2023-01-08T05:22:26.221Z,190.32
2023-01-08T05:24:54.600Z,182.30
2023-01-08T05:27:24.373Z,158.20
2023-01-08T05:29:52.946Z,220.18
2023-01-08T05:32:21.450Z,181.90
2023-01-08T05:34:50.550Z,179.70
2023-01-08T05:37:19.161Z,300.80
2023-01-08T05:39:47.750Z,295.55
2023-01-08T05:42:16.219Z,204.15
2023-01-08T05:44:46.139Z,324.38
2023-01-08T05:47:14.703Z,267.77
2023-01-08T05:49:43.229Z,334.30
2023-01-08T05:52:11.764Z,344.63
2023-01-08T05:54:40.260Z,371.05
2023-01-08T05:57:08.923Z,319.35
2023-01-08T05:59:37.563Z,386.17
2023-01-08T06:02:08.597Z,347.83
2023-01-08T06:04:37.068Z,377.88
2023-01-08T06:07:05.830Z,340.27
2023-01-08T06:09:34.366Z,396.98
2023-01-08T06:12:03.185Z,398.65
2023-01-08T06:14:31.821Z,376.95
2023-01-08T06:17:00.231Z,398.00
2023-01-08T06:19:30.162Z,410.50
2023-01-08T06:21:58.703Z,411.67
2023-01-08T06:24:27.169Z,361.45
2023-01-08T06:26:55.968Z,409.30
2023-01-08T06:29:24.452Z,418.92
2023-01-08T06:31:52.981Z,409.58
2023-01-08T06:34:21.528Z,334.20
2023-01-08T06:36:52.118Z,378.10
2023-01-08T06:39:22.233Z,398.55
2023-01-08T06:41:52.113Z,366.65
2023-01-08T06:44:20.810Z,393.88
2023-01-08T06:46:49.491Z,363.67
2023-01-08T06:49:18.151Z,413.75
2023-01-08T06:51:46.820Z,392.73
2023-01-08T06:54:16.635Z,418.08
2023-01-08T06:56:53.307Z,399.77
2023-01-08T06:59:22.282Z,434.58
2023-01-08T07:01:51.243Z,426.17
2023-01-08T07:04:20.052Z,430.83
2023-01-08T07:06:48.680Z,414.80
2023-01-08T07:09:18.671Z,431.98
2023-01-08T07:11:47.334Z,413.77
2023-01-08T07:14:18.723Z,433.42
2023-01-08T07:17:31.053Z,441.05
2023-01-08T07:20:00.193Z,438.00
2023-01-08T07:30:29.867Z,443.13
2023-01-08T07:42:29.256Z,426.13
2023-01-08T07:44:58.136Z,491.67
2023-01-08T07:47:26.663Z,455.98
2023-01-08T07:49:55.151Z,439.45
2023-01-08T07:52:23.713Z,490.45
2023-01-08T07:54:52.321Z,484.95
2023-01-08T07:57:20.993Z,457.17
2023-01-08T07:59:51.125Z,484.45
2023-01-08T08:02:20.143Z,489.40
2023-01-08T08:04:48.745Z,491.00
2023-01-08T08:07:17.625Z,482.60
2023-01-08T08:09:46.225Z,475.23
2023-01-08T08:12:15.218Z,468.55
2023-01-08T08:14:43.722Z,519.78
2023-01-08T08:17:13.687Z,493.05
2023-01-08T08:19:44.027Z,443.67
2023-01-08T08:22:14.132Z,463.35
2023-01-08T08:24:42.786Z,510.98
2023-01-08T08:27:11.554Z,518.95
2023-01-08T08:29:40.328Z,503.58
2023-01-08T08:32:09.043Z,524.05
2023-01-08T08:34:39.216Z,511.60
2023-01-08T08:41:20.523Z,509.05
2023-01-08T08:43:51.249Z,508.55
2023-01-08T08:46:20.126Z,527.92
2023-01-08T08:48:48.910Z,491.67
2023-01-08T08:51:18.684Z,493.42
2023-01-08T08:53:47.051Z,498.13
2023-01-08T08:56:15.424Z,517.38
2023-01-08T08:58:45.242Z,533.75
2023-01-08T09:01:13.796Z,529.67
2023-01-08T09:03:42.300Z,478.40
2023-01-08T09:06:15.049Z,468.17
2023-01-08T09:08:44.739Z,474.85
2023-01-08T09:11:14.497Z,462.17
2023-01-08T09:13:43.107Z,586.72
2023-01-08T09:16:11.633Z,461.48
2023-01-08T09:18:40.090Z,486.83
2023-01-08T09:21:09.425Z,482.65
2023-01-08T09:23:38.737Z,451.90
2023-01-08T09:26:08.915Z,451.27
2023-01-08T09:28:38.033Z,463.95
2023-01-08T09:31:07.419Z,543.53
2023-01-08T09:33:36.476Z,499.70
2023-01-08T09:36:05.798Z,501.23
2023-01-08T09:38:34.664Z,500.45
2023-01-08T09:41:05.443Z,474.27
2023-01-08T09:43:37.799Z,452.83
2023-01-08T09:46:10.033Z,443.45
2023-01-08T09:48:41.294Z,466.65
2023-01-08T09:51:12.053Z,469.05
2023-01-08T09:53:40.763Z,466.00
2023-01-08T09:56:15.450Z,487.13
2023-01-08T10:01:16.246Z,421.63
2023-01-08T10:03:46.793Z,435.80
2023-01-08T10:06:17.047Z,420.50
2023-01-08T10:11:19.687Z,637.13
2023-01-08T10:13:54.366Z,392.60
2023-01-08T10:18:54.729Z,320.60
2023-01-08T10:21:30.891Z,433.15
2023-01-08T10:23:59.465Z,452.92
2023-01-08T10:27:15.499Z,430.67
2023-01-08T10:32:24.532Z,235.38
2023-01-08T10:34:54.158Z,346.85
2023-01-08T10:37:28.193Z,367.95
2023-01-08T10:40:02.089Z,338.92
2023-01-08T10:42:35.063Z,489.13
2023-01-08T10:45:08.064Z,346.85
2023-01-08T10:47:38.417Z,386.08
2023-01-08T10:50:19.294Z,308.15
2023-01-08T10:52:54.586Z,292.52
2023-01-08T10:55:27.758Z,256.77
2023-01-08T10:58:00.897Z,291.45
2023-01-08T11:00:32.852Z,396.40
2023-01-08T11:03:03.420Z,375.60
2023-01-08T11:05:42.745Z,345.98
2023-01-08T11:08:22.769Z,255.98
2023-01-08T11:10:56.445Z,226.45
2023-01-08T11:13:25.029Z,247.13
2023-01-08T11:16:04.890Z,279.00
2023-01-08T11:18:43.739Z,338.58
2023-01-08T11:21:21.060Z,351.83
2023-01-08T11:24:00.470Z,216.23
2023-01-08T11:26:29.359Z,204.57
2023-01-08T11:29:01.312Z,184.88
2023-01-08T11:31:37.874Z,236.40
2023-01-08T11:34:13.318Z,216.40
2023-01-08T11:36:48.447Z,208.77
2023-01-08T11:39:17.214Z,231.15
2023-01-08T11:42:03.186Z,215.25
2023-01-08T11:44:42.139Z,197.80
2023-01-08T11:47:17.208Z,196.35
2023-01-08T11:50:11.685Z,236.18
2023-01-08T11:52:52.960Z,186.77
2023-01-08T11:55:30.668Z,208.25
2023-01-08T11:58:12.180Z,285.95
2023-01-08T12:00:50.651Z,212.32
2023-01-08T12:03:30.563Z,221.95
2023-01-08T12:06:09.775Z,198.75
2023-01-08T12:08:44.792Z,195.73
2023-01-08T12:11:18.395Z,212.02
2023-01-08T12:14:02.800Z,300.93
2023-01-08T12:16:48.440Z,323.85
2023-01-08T12:19:25.069Z,176.30
2023-01-08T12:22:22.161Z,280.08
2023-01-08T12:25:13.316Z,195.00
2023-01-08T12:27:56.698Z,170.10
2023-01-08T12:30:31.925Z,178.97
2023-01-08T12:33:04.022Z,257.35
2023-01-08T12:35:39.587Z,255.27
2023-01-08T12:38:12.200Z,201.73
2023-01-08T12:40:43.087Z,375.77
2023-01-08T12:43:16.784Z,379.27
2023-01-08T12:45:47.714Z,236.88
2023-01-08T12:48:18.169Z,208.25
2023-01-08T12:50:57.675Z,207.65
2023-01-08T12:53:36.664Z,267.15
2023-01-08T12:56:09.868Z,210.32
2023-01-08T13:10:08.475Z,264.60
2023-01-08T13:12:39.495Z,237.70
2023-01-08T13:15:09.261Z,219.05
2023-01-08T13:17:39.816Z,250.40
2023-01-08T13:20:09.597Z,239.82
2023-01-08T13:22:38.931Z,242.95
2023-01-08T13:25:34.303Z,265.52
2023-01-08T13:28:27.541Z,387.48
2023-01-08T13:31:41.387Z,315.10
2023-01-08T13:34:36.729Z,189.68
2023-01-08T13:37:06.292Z,175.43
2023-01-08T13:39:37.938Z,269.05
2023-01-08T13:42:25.223Z,202.77
2023-01-08T13:44:59.080Z,246.80
2023-01-08T13:47:32.071Z,176.90
2023-01-08T13:50:03.845Z,199.18
2023-01-08T13:52:35.958Z,236.52
2023-01-08T13:57:55.167Z,282.40
2023-01-08T14:00:34.369Z,360.33
2023-01-08T14:03:05.077Z,238.63
2023-01-08T14:05:35.138Z,194.93
2023-01-08T14:08:04.408Z,206.07
2023-01-08T14:10:33.009Z,260.33
2023-01-08T14:13:08.493Z,223.95
2023-01-08T14:15:37.747Z,213.90
2023-01-08T14:18:07.096Z,299.52
2023-01-08T14:20:37.471Z,258.90
2023-01-08T14:23:13.347Z,252.23
2023-01-08T14:25:48.248Z,192.85
2023-01-08T14:28:21.264Z,317.77
2023-01-08T14:30:50.689Z,199.45
2023-01-08T14:33:22.537Z,180.73
2023-01-08T14:35:51.568Z,196.18
2023-01-08T14:38:21.667Z,280.27
2023-01-08T14:40:58.767Z,177.85
2023-01-08T14:43:30.848Z,167.30
2023-01-08T14:46:00.089Z,194.82
2023-01-08T14:48:33.301Z,194.40
2023-01-08T14:51:04.863Z,193.77
2023-01-08T14:53:36.759Z,262.45
2023-01-08T14:56:07.001Z,183.45
2023-01-08T14:58:39.695Z,339.58
2023-01-08T15:01:16.471Z,195.80
2023-01-08T15:03:46.940Z,184.07
2023-01-08T15:06:37.287Z,189.07
2023-01-08T15:09:24.132Z,186.32
2023-01-08T15:12:01.484Z,278.40
2023-01-08T15:14:52.004Z,177.75
2023-01-08T15:17:24.216Z,314.60
2023-01-08T15:20:00.757Z,252.80
2023-01-08T15:22:32.948Z,185.88
2023-01-08T15:25:02.888Z,246.95
2023-01-08T15:27:34.372Z,174.98
2023-01-08T15:30:05.490Z,184.90
2023-01-08T15:32:37.143Z,182.38
2023-01-08T15:35:15.755Z,167.52
2023-01-08T15:37:44.766Z,172.95
2023-01-08T15:40:14.214Z,229.98
2023-01-08T15:43:03.484Z,292.65
2023-01-08T15:45:33.620Z,230.55
2023-01-08T15:48:06.715Z,311.05
2023-01-08T15:50:38.720Z,319.40
2023-01-08T15:53:08.875Z,312.90
2023-01-08T15:55:37.722Z,363.08
2023-01-08T15:58:06.315Z,505.80
2023-01-08T16:00:36.244Z,359.40
2023-01-08T16:03:07.516Z,467.95
2023-01-08T16:05:36.546Z,303.33
2023-01-08T16:08:05.790Z,270.50
2023-01-08T16:10:34.829Z,345.67
2023-01-08T16:13:03.716Z,332.20
2023-01-08T16:15:32.329Z,314.90
2023-01-08T16:18:04.568Z,260.98
2023-01-08T16:20:33.113Z,277.00
2023-01-08T16:23:01.507Z,402.52
2023-01-08T16:25:31.507Z,200.65
2023-01-08T16:28:00.175Z,237.40
2023-01-08T16:30:28.721Z,237.32
2023-01-08T16:32:57.917Z,365.95
2023-01-08T16:35:30.033Z,222.80
2023-01-08T16:38:00.831Z,235.98
2023-01-08T16:40:29.439Z,233.50
2023-01-08T16:43:02.683Z,223.63
2023-01-08T16:45:31.163Z,331.20
2023-01-08T16:47:59.546Z,299.05
2023-01-08T16:50:29.438Z,318.10
2023-01-08T16:52:57.948Z,343.88
2023-01-08T16:55:26.444Z,232.30
2023-01-08T16:57:55.674Z,302.90
2023-01-08T17:00:24.594Z,339.77
2023-01-08T17:02:53.162Z,241.13
2023-01-08T17:05:21.527Z,212.02
2023-01-08T17:07:54.094Z,254.30
2023-01-08T17:10:22.779Z,209.25
2023-01-08T17:12:51.403Z,224.23
2023-01-08T17:15:19.961Z,209.70
2023-01-08T17:17:48.379Z,213.73
2023-01-08T17:20:19.760Z,213.73
2023-01-08T17:22:48.314Z,198.55
2023-01-08T17:25:18.252Z,204.73
2023-01-08T17:27:46.740Z,220.68
2023-01-08T17:30:15.718Z,289.83
2023-01-08T17:32:44.062Z,268.35
2023-01-08T17:35:12.896Z,236.10
2023-01-08T17:37:52.468Z,339.67
2023-01-08T17:40:22.517Z,252.63
2023-01-08T17:42:50.997Z,399.00
2023-01-08T17:45:22.962Z,234.50
2023-01-08T17:47:51.906Z,206.98
2023-01-08T17:54:13.071Z,297.10
2023-01-08T18:00:12.533Z,201.35
2023-01-08T18:02:41.210Z,205.82
2023-01-08T18:05:10.392Z,264.05
2023-01-08T18:07:40.337Z,219.48
2023-01-08T18:10:10.124Z,269.10
2023-01-08T18:12:40.421Z,259.10
2023-01-08T18:15:09.925Z,234.70
2023-01-08T18:17:39.489Z,337.02
2023-01-08T18:20:09.340Z,304.38
2023-01-08T18:22:38.447Z,260.55
2023-01-08T18:25:07.487Z,237.70
2023-01-08T18:27:36.527Z,259.88
2023-01-08T18:30:10.199Z,265.17
2023-01-08T18:32:38.735Z,253.00
2023-01-08T18:35:07.993Z,310.88
2023-01-08T18:37:36.458Z,312.42
2023-01-08T18:40:05.211Z,279.38
2023-01-08T18:42:33.982Z,325.40
2023-01-08T18:45:03.569Z,374.67
2023-01-08T18:47:33.471Z,378.88
2023-01-08T18:50:03.343Z,394.00
2023-01-08T18:52:31.915Z,549.25
2023-01-08T18:55:00.383Z,466.58
2023-01-08T18:57:29.403Z,369.00
2023-01-08T18:59:58.084Z,431.63
2023-01-08T19:02:29.197Z,358.33
2023-01-08T19:04:59.139Z,363.98
2023-01-08T19:07:28.194Z,308.60
2023-01-08T19:10:02.121Z,365.67
2023-01-08T19:12:32.310Z,341.75
2023-01-08T19:15:00.855Z,303.33
2023-01-08T19:17:31.803Z,312.15
2023-01-08T19:20:01.911Z,354.75
2023-01-08T19:22:32.017Z,341.50
2023-01-08T19:25:03.074Z,374.13
2023-01-08T19:27:31.716Z,365.63
2023-01-08T19:30:00.408Z,291.90
2023-01-08T19:32:30.241Z,398.08
2023-01-08T19:35:03.319Z,352.92
2023-01-08T19:37:32.277Z,319.08
2023-01-08T19:40:03.173Z,343.15
2023-01-08T19:42:49.139Z,403.40
2023-01-08T19:45:19.587Z,389.85
2023-01-08T19:47:48.267Z,362.00
2023-01-08T19:53:52.497Z,342.75
2023-01-08T19:56:22.191Z,386.80
2023-01-08T19:58:51.323Z,399.10
2023-01-08T20:01:22.712Z,419.25
2023-01-08T20:03:51.473Z,413.00
2023-01-08T20:06:23.844Z,369.67
2023-01-08T20:09:00.054Z,411.63
2023-01-08T20:11:31.212Z,426.73
2023-01-08T20:14:02.787Z,386.38
2023-01-08T20:16:31.674Z,454.75
2023-01-08T20:19:02.275Z,459.27
2023-01-08T20:21:33.774Z,456.63
2023-01-08T20:24:08.478Z,456.60
2023-01-08T20:29:07.758Z,453.95
2023-01-08T20:31:36.523Z,473.25
2023-01-08T20:34:07.425Z,531.03
2023-01-08T20:36:38.574Z,458.50
2023-01-08T20:39:10.059Z,483.27
2023-01-08T20:41:38.872Z,475.70
2023-01-08T20:44:07.938Z,476.08
2023-01-08T20:46:39.967Z,508.38
2023-01-08T20:49:11.751Z,486.58
2023-01-08T20:51:54.367Z,492.40
2023-01-08T20:54:28.981Z,487.35
2023-01-08T20:56:58.209Z,478.52
2023-01-08T20:59:26.986Z,492.77
2023-01-08T21:01:55.698Z,486.30
2023-01-08T21:04:24.572Z,491.23
2023-01-08T21:06:53.522Z,510.55
2023-01-08T21:09:22.170Z,506.30
2023-01-08T21:11:52.079Z,492.13
2023-01-08T21:14:20.787Z,497.38
2023-01-08T21:16:49.552Z,505.80
2023-01-08T21:19:18.365Z,488.42
2023-01-08T21:21:46.926Z,504.42
2023-01-08T21:24:16.223Z,497.92
2023-01-08T21:26:46.398Z,527.25
2023-01-08T21:29:17.613Z,504.88
2023-01-08T21:31:46.150Z,498.65
2023-01-08T21:34:15.000Z,530.85
2023-01-08T21:36:43.862Z,546.88
2023-01-08T21:39:12.929Z,505.15
2023-01-08T21:41:59.285Z,516.17
2023-01-08T21:44:47.205Z,506.60
2023-01-08T21:47:19.658Z,502.05
2023-01-08T21:49:48.203Z,496.65
2023-01-08T21:52:33.938Z,500.95
2023-01-08T21:55:02.522Z,514.50
2023-01-08T21:57:30.893Z,510.83
2023-01-08T22:00:00.885Z,516.70
2023-01-08T22:02:29.415Z,509.83
2023-01-08T22:04:58.594Z,516.53
2023-01-08T22:07:27.554Z,539.58
2023-01-08T22:10:15.118Z,521.33
2023-01-08T22:12:43.752Z,518.58
2023-01-08T22:15:14.623Z,526.67
2023-01-08T22:17:43.295Z,525.45
2023-01-08T22:20:12.828Z,522.13
2023-01-08T22:22:42.507Z,556.90
2023-01-08T22:25:11.291Z,509.45
2023-01-08T22:27:40.023Z,518.92
2023-01-08T22:30:09.964Z,565.70
2023-01-08T22:32:39.884Z,557.78
2023-01-08T22:35:08.628Z,544.88
2023-01-08T22:37:37.587Z,517.40
2023-01-08T22:40:06.527Z,555.38
2023-01-08T22:42:36.123Z,550.47
2023-01-08T22:45:05.014Z,543.53
2023-01-08T22:47:33.568Z,554.42
2023-01-08T22:50:03.646Z,565.67
2023-01-08T22:52:32.107Z,558.08
2023-01-08T22:55:00.972Z,537.80
2023-01-08T22:57:29.601Z,560.33
2023-01-08T22:59:58.379Z,577.60
2023-01-08T23:02:27.068Z,567.53
2023-01-08T23:04:56.949Z,551.60
2023-01-08T23:07:26.818Z,535.20
2023-01-08T23:09:55.374Z,565.58
2023-01-08T23:12:23.927Z,548.88
2023-01-08T23:14:52.678Z,518.78
2023-01-08T23:17:21.249Z,546.67
2023-01-08T23:19:49.903Z,508.70
2023-01-08T23:22:18.506Z,540.38
2023-01-08T23:24:48.479Z,511.67
2023-01-08T23:27:17.090Z,543.25
2023-01-08T23:29:45.578Z,536.83
2023-01-08T23:32:14.039Z,550.25
2023-01-08T23:34:43.301Z,473.55
2023-01-08T23:37:12.298Z,546.33
2023-01-08T23:39:41.149Z,552.35
2023-01-08T23:42:11.169Z,521.40
2023-01-08T23:44:39.763Z,493.98
2023-01-08T23:47:08.568Z,483.98
2023-01-08T23:49:37.298Z,512.78
2023-01-08T23:52:05.904Z,535.00
2023-01-08T23:54:35.875Z,517.25
2023-01-08T23:57:06.087Z,464.50
2023-01-08T23:59:36.090Z,546.63
